createdAt,value
2022-11-19T00:00:15.788Z,39.90
2022-11-19T00:00:51.137Z,36.10
2022-11-19T00:01:27.110Z,37.00
2022-11-19T00:02:02.410Z,38.30
2022-11-19T00:02:37.543Z,31.50
2022-11-19T00:03:12.962Z,32.10
2022-11-19T00:03:52.371Z,35.30
2022-11-19T00:04:23.285Z,39.50
2022-11-19T00:04:58.462Z,39.50
2022-11-19T00:05:33.675Z,36.50
2022-11-19T00:06:09.185Z,38.70
2022-11-19T00:06:44.420Z,40.10
2022-11-19T00:07:19.630Z,39.50
2022-11-19T00:07:54.824Z,38.00
2022-11-19T00:08:30.116Z,35.20
2022-11-19T00:09:05.464Z,33.70
2022-11-19T00:09:40.664Z,35.80
2022-11-19T00:10:16.178Z,36.20
2022-11-19T00:10:51.270Z,40.00
2022-11-19T00:11:26.692Z,43.50
2022-11-19T00:12:01.695Z,36.90
2022-11-19T00:12:36.719Z,35.80
2022-11-19T00:13:12.002Z,36.90
2022-11-19T00:13:47.308Z,33.40
2022-11-19T00:14:22.828Z,36.40
2022-11-19T00:14:58.057Z,36.80
2022-11-19T00:15:33.341Z,35.40
2022-11-19T00:16:08.744Z,34.10
2022-11-19T00:16:44.139Z,35.60
2022-11-19T00:17:19.367Z,38.40
2022-11-19T00:17:54.445Z,36.50
2022-11-19T00:18:29.557Z,38.60
2022-11-19T00:19:04.864Z,34.00
2022-11-19T00:19:40.384Z,36.80
2022-11-19T00:20:15.498Z,37.50
2022-11-19T00:20:50.992Z,35.90
2022-11-19T00:21:26.391Z,35.50
2022-11-19T00:22:01.801Z,34.70
2022-11-19T00:22:37.409Z,38.40
2022-11-19T00:23:12.418Z,42.00
2022-11-19T00:23:47.818Z,37.10
2022-11-19T00:24:22.773Z,35.20
2022-11-19T00:24:58.176Z,37.90
2022-11-19T00:25:33.192Z,34.80
2022-11-19T00:26:08.474Z,41.80
2022-11-19T00:26:43.869Z,40.70
2022-11-19T00:27:19.092Z,39.50
2022-11-19T00:27:54.334Z,40.70
2022-11-19T00:28:29.639Z,40.80
2022-11-19T00:29:04.839Z,39.70
2022-11-19T00:29:39.723Z,33.90
2022-11-19T00:30:40.825Z,38.30
2022-11-19T00:30:50.249Z,38.10
2022-11-19T00:31:25.668Z,33.50
2022-11-19T00:32:00.981Z,35.80
2022-11-19T00:32:36.412Z,36.60
2022-11-19T00:33:11.640Z,38.10
2022-11-19T00:33:47.086Z,37.60
2022-11-19T00:34:22.374Z,34.80
2022-11-19T00:34:57.592Z,35.30
2022-11-19T00:35:32.886Z,38.20
2022-11-19T00:36:08.209Z,38.70
2022-11-19T00:36:43.718Z,38.10
2022-11-19T00:37:18.918Z,36.60
2022-11-19T00:37:54.114Z,39.00
2022-11-19T00:38:29.330Z,39.10
2022-11-19T00:39:04.929Z,37.80
2022-11-19T00:39:39.947Z,36.60
2022-11-19T00:40:15.134Z,36.90
2022-11-19T00:40:50.852Z,34.80
2022-11-19T00:41:25.971Z,38.00
2022-11-19T00:42:01.837Z,39.70
2022-11-19T00:42:36.936Z,38.00
2022-11-19T00:43:12.160Z,41.90
2022-11-19T00:43:47.734Z,41.10
2022-11-19T00:44:22.572Z,36.30
2022-11-19T00:44:57.979Z,41.60
2022-11-19T00:45:33.306Z,41.20
2022-11-19T00:46:08.499Z,43.00
2022-11-19T00:46:43.813Z,41.60
2022-11-19T00:47:19.119Z,40.80
2022-11-19T00:47:54.143Z,39.10
2022-11-19T00:48:29.434Z,39.40
2022-11-19T00:49:04.682Z,43.30
2022-11-19T00:49:39.872Z,40.20
2022-11-19T00:50:15.387Z,38.10
2022-11-19T00:50:50.681Z,41.00
2022-11-19T00:51:26.212Z,42.10
2022-11-19T00:52:01.307Z,39.30
2022-11-19T00:52:36.442Z,42.10
2022-11-19T00:53:11.538Z,40.80
2022-11-19T00:53:47.056Z,41.00
2022-11-19T00:54:22.457Z,37.80
2022-11-19T00:54:57.779Z,33.70
2022-11-19T00:55:32.856Z,30.20
2022-11-19T00:56:08.003Z,31.60
2022-11-19T00:56:42.993Z,29.70
2022-11-19T00:57:18.307Z,38.40
2022-11-19T00:57:53.401Z,44.30
2022-11-19T00:58:29.412Z,38.20
2022-11-19T00:59:04.392Z,36.70
2022-11-19T00:59:39.950Z,33.10
2022-11-19T01:00:15.498Z,33.70
2022-11-19T01:00:50.534Z,35.00
2022-11-19T01:01:25.765Z,36.30
2022-11-19T01:02:00.811Z,38.20
2022-11-19T01:02:35.997Z,46.10
2022-11-19T01:03:11.776Z,39.20
2022-11-19T01:03:47.075Z,40.00
2022-11-19T01:04:22.274Z,38.80
2022-11-19T01:04:57.397Z,35.20
2022-11-19T01:05:32.835Z,36.10
2022-11-19T01:06:08.041Z,38.30
2022-11-19T01:06:43.252Z,40.50
2022-11-19T01:07:18.572Z,39.80
2022-11-19T01:07:53.877Z,41.90
2022-11-19T01:08:29.279Z,42.60
2022-11-19T01:09:04.300Z,46.90
2022-11-19T01:09:39.628Z,44.00
2022-11-19T01:10:15.160Z,42.90
2022-11-19T01:10:50.198Z,42.60
2022-11-19T01:11:25.519Z,41.90
2022-11-19T01:12:00.939Z,43.40
2022-11-19T01:12:36.047Z,50.10
2022-11-19T01:13:11.057Z,48.40
2022-11-19T01:13:46.161Z,36.10
2022-11-19T01:14:21.177Z,42.30
2022-11-19T01:14:56.293Z,48.00
2022-11-19T01:15:31.497Z,47.00
2022-11-19T01:16:07.014Z,42.60
2022-11-19T01:16:42.118Z,41.60
2022-11-19T01:17:17.429Z,44.60
2022-11-19T01:17:52.512Z,41.00
2022-11-19T01:18:27.704Z,38.50
2022-11-19T01:19:02.906Z,38.50
2022-11-19T01:19:38.009Z,45.60
2022-11-19T01:20:13.266Z,40.10
2022-11-19T01:20:48.851Z,41.50
2022-11-19T01:21:24.287Z,45.40
2022-11-19T01:21:59.483Z,44.90
2022-11-19T01:22:34.493Z,46.30
2022-11-19T01:23:09.789Z,43.00
2022-11-19T01:23:45.183Z,41.40
2022-11-19T01:24:20.406Z,40.90
2022-11-19T01:24:55.500Z,43.00
2022-11-19T01:25:30.909Z,43.70
2022-11-19T01:26:06.226Z,43.30
2022-11-19T01:26:45.461Z,37.00
2022-11-19T01:27:16.808Z,43.30
2022-11-19T01:27:51.928Z,44.90
2022-11-19T01:28:27.132Z,43.70
2022-11-19T01:29:02.565Z,42.60
2022-11-19T01:29:37.912Z,44.30
2022-11-19T01:30:13.423Z,43.60
2022-11-19T01:30:49.019Z,42.80
2022-11-19T01:31:24.508Z,44.20
2022-11-19T01:31:59.606Z,45.20
2022-11-19T01:32:34.732Z,44.80
2022-11-19T01:33:10.214Z,44.10
2022-11-19T01:33:45.150Z,46.40
2022-11-19T01:34:20.561Z,43.00
2022-11-19T01:34:55.892Z,44.50
2022-11-19T01:35:31.188Z,42.60
2022-11-19T01:36:06.608Z,40.20
2022-11-19T01:36:42.015Z,39.10
2022-11-19T01:37:17.304Z,44.20
2022-11-19T01:37:52.695Z,41.30
2022-11-19T01:38:28.114Z,40.40
2022-11-19T01:39:03.505Z,43.10
2022-11-19T01:39:39.020Z,42.60
2022-11-19T01:40:14.215Z,43.60
2022-11-19T01:40:49.623Z,44.10
2022-11-19T01:41:24.730Z,44.90
2022-11-19T01:41:59.971Z,45.10
2022-11-19T01:42:35.156Z,39.30
2022-11-19T01:43:10.487Z,40.10
2022-11-19T01:43:45.954Z,38.20
2022-11-19T01:44:21.405Z,40.20
2022-11-19T01:44:56.593Z,44.20
2022-11-19T01:45:32.030Z,41.20
2022-11-19T01:46:07.235Z,44.40
2022-11-19T01:46:42.648Z,50.20
2022-11-19T01:47:17.678Z,45.90
2022-11-19T01:47:52.778Z,41.30
2022-11-19T01:48:27.971Z,43.90
2022-11-19T01:49:03.702Z,46.00
2022-11-19T01:49:38.827Z,46.30
2022-11-19T01:50:14.258Z,50.90
2022-11-19T01:50:49.461Z,44.60
2022-11-19T01:51:24.698Z,41.10
2022-11-19T01:51:59.893Z,45.60
2022-11-19T01:52:35.338Z,51.20
2022-11-19T01:53:10.432Z,53.00
2022-11-19T01:53:46.062Z,47.30
2022-11-19T01:54:21.373Z,45.90
2022-11-19T01:54:56.982Z,44.60
2022-11-19T01:55:32.272Z,44.70
2022-11-19T01:56:07.597Z,44.50
2022-11-19T01:56:42.685Z,45.90
2022-11-19T01:57:17.863Z,47.80
2022-11-19T01:57:53.079Z,45.20
2022-11-19T01:58:28.303Z,48.40
2022-11-19T01:59:03.408Z,46.30
2022-11-19T01:59:38.743Z,44.50
2022-11-19T02:00:14.048Z,48.90
2022-11-19T02:00:49.177Z,44.90
2022-11-19T02:01:24.430Z,46.10
2022-11-19T02:01:59.606Z,38.30
2022-11-19T02:02:34.820Z,38.60
2022-11-19T02:03:09.980Z,39.10
2022-11-19T02:03:45.275Z,43.30
2022-11-19T02:04:20.382Z,46.70
2022-11-19T02:04:55.603Z,38.70
2022-11-19T02:05:30.819Z,45.20
2022-11-19T02:06:06.148Z,47.00
2022-11-19T02:06:41.679Z,45.10
2022-11-19T02:07:17.304Z,39.70
2022-11-19T02:07:52.592Z,40.00
2022-11-19T02:08:27.707Z,43.80
2022-11-19T02:09:02.739Z,48.50
2022-11-19T02:09:38.072Z,46.00
2022-11-19T02:10:13.194Z,42.70
2022-11-19T02:10:48.594Z,46.60
2022-11-19T02:11:23.826Z,47.10
2022-11-19T02:11:58.937Z,46.30
2022-11-19T02:12:34.154Z,44.30
2022-11-19T02:13:09.353Z,46.60
2022-11-19T02:13:44.594Z,42.10
2022-11-19T02:14:19.704Z,45.90
2022-11-19T02:14:55.156Z,50.70
2022-11-19T02:15:30.120Z,55.90
2022-11-19T02:16:05.280Z,50.00
2022-11-19T02:16:40.164Z,42.90
2022-11-19T02:17:15.200Z,45.30
2022-11-19T02:17:50.836Z,53.20
2022-11-19T02:18:26.070Z,52.50
2022-11-19T02:19:01.392Z,46.70
2022-11-19T02:19:36.718Z,45.70
2022-11-19T02:20:11.912Z,45.20
2022-11-19T02:20:47.236Z,44.10
2022-11-19T02:21:22.432Z,45.30
2022-11-19T02:21:57.651Z,45.90
2022-11-19T02:22:33.037Z,47.20
2022-11-19T02:23:08.202Z,43.20
2022-11-19T02:23:46.212Z,48.80
2022-11-19T02:24:18.844Z,46.70
2022-11-19T02:24:54.154Z,48.40
2022-11-19T02:25:29.688Z,49.20
2022-11-19T02:26:04.896Z,46.70
2022-11-19T02:26:40.224Z,50.40
2022-11-19T02:27:15.744Z,50.50
2022-11-19T02:27:51.260Z,44.20
2022-11-19T02:28:26.180Z,45.30
2022-11-19T02:29:02.000Z,46.60
2022-11-19T02:29:37.104Z,49.40
2022-11-19T02:30:12.669Z,45.70
2022-11-19T02:30:48.390Z,41.60
2022-11-19T02:31:23.737Z,43.80
2022-11-19T02:31:58.969Z,47.30
2022-11-19T02:32:34.405Z,43.30
2022-11-19T02:33:09.514Z,39.80
2022-11-19T02:33:44.956Z,43.70
2022-11-19T02:34:20.776Z,48.90
2022-11-19T02:34:56.206Z,45.90
2022-11-19T02:35:31.442Z,46.80
2022-11-19T02:36:06.988Z,54.40
2022-11-19T02:36:42.194Z,48.40
2022-11-19T02:37:17.406Z,50.10
2022-11-19T02:37:52.714Z,48.30
2022-11-19T02:38:27.847Z,47.50
2022-11-19T02:39:03.246Z,48.10
2022-11-19T02:39:39.022Z,49.40
2022-11-19T02:40:14.547Z,51.30
2022-11-19T02:40:49.614Z,46.40
2022-11-19T02:41:24.662Z,48.00
2022-11-19T02:41:59.994Z,48.60
2022-11-19T02:42:35.018Z,41.50
2022-11-19T02:43:10.046Z,44.70
2022-11-19T02:43:45.411Z,46.60
2022-11-19T02:44:20.656Z,46.20
2022-11-19T02:44:55.909Z,48.90
2022-11-19T02:45:30.945Z,48.60
2022-11-19T02:46:06.257Z,49.50
2022-11-19T02:46:41.481Z,49.70
2022-11-19T02:47:16.701Z,48.80
2022-11-19T02:47:52.037Z,46.70
2022-11-19T02:48:27.615Z,51.60
2022-11-19T02:49:02.742Z,46.60
2022-11-19T02:49:38.074Z,45.20
2022-11-19T02:50:13.303Z,47.20
2022-11-19T02:50:48.680Z,47.40
2022-11-19T02:51:24.013Z,46.20
2022-11-19T02:51:59.523Z,47.30
2022-11-19T02:52:34.885Z,45.90
2022-11-19T02:53:10.190Z,49.50
2022-11-19T02:53:45.322Z,46.70
2022-11-19T02:54:20.644Z,42.70
2022-11-19T02:54:56.111Z,43.80
2022-11-19T02:55:31.527Z,48.00
2022-11-19T02:56:06.560Z,47.80
2022-11-19T02:56:41.884Z,44.30
2022-11-19T02:57:17.512Z,43.80
2022-11-19T02:57:52.721Z,42.40
2022-11-19T02:58:28.064Z,44.00
2022-11-19T02:59:03.560Z,41.80
2022-11-19T02:59:38.865Z,46.70
2022-11-19T03:00:14.068Z,50.60
2022-11-19T03:00:49.519Z,46.10
2022-11-19T03:01:24.672Z,48.50
2022-11-19T03:01:59.869Z,46.00
2022-11-19T03:02:35.095Z,45.00
2022-11-19T03:03:10.418Z,40.90
2022-11-19T03:03:45.620Z,48.20
2022-11-19T03:04:20.756Z,43.80
2022-11-19T03:04:56.150Z,41.80
2022-11-19T03:05:31.199Z,39.60
2022-11-19T03:06:06.526Z,44.00
2022-11-19T03:06:41.948Z,47.10
2022-11-19T03:07:17.719Z,49.70
2022-11-19T03:07:52.802Z,51.40
2022-11-19T03:08:27.894Z,50.00
2022-11-19T03:09:03.488Z,48.60
2022-11-19T03:09:38.710Z,47.10
2022-11-19T03:10:14.037Z,44.80
2022-11-19T03:10:49.132Z,48.70
2022-11-19T03:11:24.797Z,50.80
2022-11-19T03:12:00.138Z,48.60
2022-11-19T03:12:35.559Z,46.50
2022-11-19T03:13:10.723Z,50.20
2022-11-19T03:13:45.957Z,46.50
2022-11-19T03:14:21.471Z,45.20
2022-11-19T03:14:56.688Z,39.60
2022-11-19T03:15:31.691Z,38.00
2022-11-19T03:16:06.505Z,42.60
2022-11-19T03:16:41.944Z,46.30
2022-11-19T03:17:17.276Z,43.20
2022-11-19T03:17:52.306Z,45.00
2022-11-19T03:18:27.454Z,43.70
2022-11-19T03:19:02.716Z,45.80
2022-11-19T03:19:38.053Z,48.00
2022-11-19T03:20:13.056Z,44.90
2022-11-19T03:20:48.186Z,44.60
2022-11-19T03:21:23.303Z,46.60
2022-11-19T03:21:58.959Z,47.70
2022-11-19T03:22:34.172Z,45.80
2022-11-19T03:23:09.599Z,51.30
2022-11-19T03:23:44.711Z,47.20
2022-11-19T03:24:19.850Z,46.60
2022-11-19T03:24:55.195Z,45.40
2022-11-19T03:25:30.452Z,47.70
2022-11-19T03:26:05.565Z,47.70
2022-11-19T03:26:41.007Z,47.20
2022-11-19T03:27:16.208Z,47.10
2022-11-19T03:27:51.328Z,51.30
2022-11-19T03:28:26.550Z,49.80
2022-11-19T03:29:01.577Z,47.20
2022-11-19T03:29:36.888Z,51.20
2022-11-19T03:30:12.031Z,49.10
2022-11-19T03:30:47.324Z,47.70
2022-11-19T03:31:22.556Z,43.70
2022-11-19T03:31:57.593Z,44.50
2022-11-19T03:32:32.806Z,42.00
2022-11-19T03:33:08.318Z,46.30
2022-11-19T03:33:43.559Z,49.40
2022-11-19T03:34:18.785Z,51.70
2022-11-19T03:34:54.201Z,50.20
2022-11-19T03:35:29.397Z,52.10
2022-11-19T03:36:04.726Z,45.00
2022-11-19T03:36:39.730Z,43.70
2022-11-19T03:37:15.281Z,49.70
2022-11-19T03:37:50.376Z,48.90
2022-11-19T03:38:25.621Z,47.40
2022-11-19T03:39:00.929Z,50.30
2022-11-19T03:39:36.041Z,50.60
2022-11-19T03:40:11.557Z,49.40
2022-11-19T03:40:46.679Z,48.10
2022-11-19T03:41:22.072Z,47.60
2022-11-19T03:41:57.176Z,50.00
2022-11-19T03:42:32.281Z,53.90
2022-11-19T03:43:07.527Z,45.70
2022-11-19T03:43:42.654Z,43.70
2022-11-19T03:44:17.976Z,45.30
2022-11-19T03:44:52.986Z,50.80
2022-11-19T03:45:28.304Z,51.80
2022-11-19T03:46:03.558Z,50.40
2022-11-19T03:46:38.772Z,44.70
2022-11-19T03:47:13.868Z,42.30
2022-11-19T03:47:49.111Z,48.20
2022-11-19T03:48:24.414Z,47.60
2022-11-19T03:48:59.762Z,44.70
2022-11-19T03:49:35.482Z,48.30
2022-11-19T03:50:10.810Z,54.00
2022-11-19T03:50:46.314Z,48.20
2022-11-19T03:51:21.933Z,46.00
2022-11-19T03:51:57.031Z,47.10
2022-11-19T03:52:32.478Z,48.20
2022-11-19T03:53:07.680Z,46.60
2022-11-19T03:53:43.100Z,42.60
2022-11-19T03:54:18.302Z,47.10
2022-11-19T03:54:53.938Z,46.30
2022-11-19T03:55:29.168Z,43.40
2022-11-19T03:56:04.584Z,44.30
2022-11-19T03:56:39.926Z,51.30
2022-11-19T03:57:15.132Z,43.90
2022-11-19T03:57:50.246Z,43.10
2022-11-19T03:58:25.580Z,39.50
2022-11-19T03:59:00.931Z,40.70
2022-11-19T03:59:36.166Z,44.60
2022-11-19T04:00:11.172Z,46.80
2022-11-19T04:00:46.517Z,53.00
2022-11-19T04:01:21.994Z,43.40
2022-11-19T04:01:57.293Z,41.70
2022-11-19T04:02:32.579Z,43.40
2022-11-19T04:03:07.687Z,44.10
2022-11-19T04:03:42.690Z,44.60
2022-11-19T04:04:18.019Z,42.80
2022-11-19T04:04:53.117Z,45.40
2022-11-19T04:05:28.236Z,45.80
2022-11-19T04:06:03.348Z,42.70
2022-11-19T04:06:38.774Z,43.30
2022-11-19T04:07:14.100Z,45.50
2022-11-19T04:07:49.222Z,47.50
2022-11-19T04:08:24.719Z,44.80
2022-11-19T04:09:00.068Z,45.20
2022-11-19T04:09:35.172Z,42.20
2022-11-19T04:10:10.697Z,44.80
2022-11-19T04:10:45.995Z,45.80
2022-11-19T04:11:42.315Z,44.10
2022-11-19T04:12:17.523Z,44.50
2022-11-19T04:12:52.875Z,47.70
2022-11-19T04:13:28.288Z,46.40
2022-11-19T04:14:03.317Z,44.10
2022-11-19T04:14:38.452Z,45.10
2022-11-19T04:15:13.775Z,46.20
2022-11-19T04:15:49.019Z,42.40
2022-11-19T04:16:24.039Z,38.50
2022-11-19T04:16:59.462Z,45.30
2022-11-19T04:17:34.623Z,44.80
2022-11-19T04:18:09.534Z,40.90
2022-11-19T04:18:44.860Z,45.10
2022-11-19T04:19:20.010Z,45.50
2022-11-19T04:19:54.781Z,46.70
2022-11-19T04:20:30.181Z,43.80
2022-11-19T04:21:05.432Z,41.30
2022-11-19T04:21:40.917Z,38.80
2022-11-19T04:22:16.080Z,45.00
2022-11-19T04:22:51.210Z,45.50
2022-11-19T04:23:26.335Z,44.20
2022-11-19T04:24:01.539Z,42.60
2022-11-19T04:24:36.770Z,41.30
2022-11-19T04:25:11.980Z,44.70
2022-11-19T04:25:47.015Z,46.30
2022-11-19T04:26:22.035Z,42.90
2022-11-19T04:26:57.264Z,40.60
2022-11-19T04:27:32.571Z,39.50
2022-11-19T04:28:08.217Z,39.00
2022-11-19T04:28:43.615Z,39.60
2022-11-19T04:29:19.198Z,44.70
2022-11-19T04:29:53.785Z,42.60
2022-11-19T04:30:29.026Z,44.40
2022-11-19T04:31:04.036Z,49.40
2022-11-19T04:31:39.554Z,43.20
2022-11-19T04:32:14.546Z,38.40
2022-11-19T04:32:49.875Z,40.90
2022-11-19T04:33:25.196Z,49.90
2022-11-19T04:34:00.139Z,45.80
2022-11-19T04:34:35.460Z,43.00
2022-11-19T04:35:10.907Z,42.10
2022-11-19T04:35:46.123Z,43.40
2022-11-19T04:36:21.465Z,45.20
2022-11-19T04:36:56.701Z,38.90
2022-11-19T04:37:32.044Z,46.10
2022-11-19T04:38:07.263Z,46.00
2022-11-19T04:38:42.890Z,42.60
2022-11-19T04:39:18.474Z,43.70
2022-11-19T04:39:53.140Z,41.10
2022-11-19T04:40:28.857Z,36.50
2022-11-19T04:41:03.954Z,43.40
2022-11-19T04:41:39.352Z,41.80
2022-11-19T04:42:14.600Z,41.60
2022-11-19T04:42:49.813Z,46.00
2022-11-19T04:43:25.051Z,40.60
2022-11-19T04:44:00.269Z,43.20
2022-11-19T04:44:35.632Z,40.60
2022-11-19T04:45:11.033Z,42.20
2022-11-19T04:45:46.141Z,43.30
2022-11-19T04:46:21.224Z,40.70
2022-11-19T04:46:56.754Z,37.50
2022-11-19T04:47:31.855Z,40.30
2022-11-19T04:48:07.101Z,40.00
2022-11-19T04:48:42.056Z,37.40
2022-11-19T04:49:17.400Z,39.30
2022-11-19T04:49:52.863Z,41.00
2022-11-19T04:50:27.980Z,40.30
2022-11-19T04:51:03.191Z,40.00
2022-11-19T04:51:38.538Z,38.80
2022-11-19T04:52:13.647Z,39.10
2022-11-19T04:52:49.186Z,40.40
2022-11-19T04:53:24.513Z,38.80
2022-11-19T04:53:59.663Z,35.70
2022-11-19T04:54:34.872Z,37.00
2022-11-19T04:55:10.093Z,40.40
2022-11-19T04:55:45.503Z,42.10
2022-11-19T04:56:21.054Z,44.00
2022-11-19T04:56:56.178Z,38.40
2022-11-19T04:57:31.334Z,40.90
2022-11-19T04:58:06.674Z,44.80
2022-11-19T04:58:41.803Z,39.40
2022-11-19T04:59:17.274Z,41.30
2022-11-19T04:59:52.344Z,43.10
2022-11-19T05:00:27.568Z,41.00
2022-11-19T05:01:02.795Z,43.70
2022-11-19T05:01:38.117Z,44.10
2022-11-19T05:02:13.183Z,40.80
2022-11-19T05:02:48.229Z,40.80
2022-11-19T05:03:23.501Z,45.30
2022-11-19T05:03:58.729Z,47.70
2022-11-19T05:04:34.035Z,44.30
2022-11-19T05:05:09.432Z,44.60
2022-11-19T05:05:44.661Z,43.00
2022-11-19T05:06:19.779Z,44.00
2022-11-19T05:06:55.159Z,45.70
2022-11-19T05:07:30.333Z,46.40
2022-11-19T05:08:05.396Z,41.10
2022-11-19T05:08:40.789Z,38.20
2022-11-19T05:09:16.068Z,38.60
2022-11-19T05:09:51.441Z,41.00
2022-11-19T05:10:26.561Z,41.80
2022-11-19T05:11:01.676Z,42.30
2022-11-19T05:11:37.492Z,40.40
2022-11-19T05:12:12.702Z,43.20
2022-11-19T05:12:47.856Z,36.80
2022-11-19T05:13:22.988Z,39.30
2022-11-19T05:13:58.513Z,38.20
2022-11-19T05:14:33.525Z,42.60
2022-11-19T05:15:16.371Z,41.90
2022-11-19T05:15:51.374Z,37.80
2022-11-19T05:16:26.761Z,40.70
2022-11-19T05:17:01.831Z,43.70
2022-11-19T05:17:37.263Z,43.70
2022-11-19T05:18:12.486Z,40.50
2022-11-19T05:18:47.549Z,39.00
2022-11-19T05:19:23.192Z,39.20
2022-11-19T05:19:58.512Z,39.30
2022-11-19T05:20:33.799Z,39.70
2022-11-19T05:21:09.120Z,37.70
2022-11-19T05:21:44.219Z,39.70
2022-11-19T05:22:19.355Z,36.10
2022-11-19T05:22:54.626Z,37.60
2022-11-19T05:23:29.938Z,40.10
2022-11-19T05:24:05.344Z,42.10
2022-11-19T05:24:40.575Z,42.30
2022-11-19T05:25:15.696Z,39.80
2022-11-19T05:25:50.918Z,40.10
2022-11-19T05:26:26.138Z,37.00
2022-11-19T05:27:01.278Z,37.40
2022-11-19T05:27:36.302Z,39.00
2022-11-19T05:28:11.466Z,40.10
2022-11-19T05:28:47.015Z,40.90
2022-11-19T05:29:22.314Z,39.10
2022-11-19T05:29:57.362Z,42.00
2022-11-19T05:30:32.966Z,43.90
2022-11-19T05:31:08.197Z,36.70
2022-11-19T05:31:43.242Z,38.30
2022-11-19T05:32:18.580Z,39.90
2022-11-19T05:32:53.768Z,38.00
2022-11-19T05:33:33.770Z,34.90
2022-11-19T05:34:04.603Z,37.40
2022-11-19T05:34:39.932Z,39.90
2022-11-19T05:35:15.269Z,42.20
2022-11-19T05:35:50.305Z,37.60
2022-11-19T05:36:25.959Z,37.50
2022-11-19T05:37:01.398Z,41.70
2022-11-19T05:37:36.843Z,44.90
2022-11-19T05:38:12.292Z,41.60
2022-11-19T05:38:47.522Z,42.10
2022-11-19T05:39:22.767Z,42.50
2022-11-19T05:39:58.385Z,42.90
2022-11-19T05:40:33.784Z,43.50
2022-11-19T05:41:08.936Z,39.80
2022-11-19T05:41:44.349Z,36.90
2022-11-19T05:42:19.616Z,35.80
2022-11-19T05:42:54.821Z,38.40
2022-11-19T05:43:30.383Z,40.90
2022-11-19T05:44:05.888Z,38.30
2022-11-19T05:44:41.342Z,42.50
2022-11-19T05:45:16.546Z,35.00
2022-11-19T05:45:51.986Z,36.80
2022-11-19T05:46:27.209Z,38.00
2022-11-19T05:47:02.404Z,35.40
2022-11-19T05:47:37.638Z,41.40
2022-11-19T05:48:12.890Z,44.00
2022-11-19T05:48:48.120Z,39.10
2022-11-19T05:49:23.266Z,38.30
2022-11-19T05:49:58.773Z,36.80
2022-11-19T05:50:33.906Z,37.50
2022-11-19T05:51:09.040Z,43.10
2022-11-19T05:51:44.281Z,43.70
2022-11-19T05:52:19.712Z,41.00
2022-11-19T05:52:55.220Z,40.50
2022-11-19T05:53:30.204Z,35.70
2022-11-19T05:54:05.327Z,37.10
2022-11-19T05:54:40.770Z,40.30
2022-11-19T05:55:16.012Z,41.20
2022-11-19T05:55:51.522Z,40.60
2022-11-19T05:56:26.773Z,32.70
2022-11-19T05:57:02.206Z,33.60
2022-11-19T05:57:37.460Z,37.00
2022-11-19T05:58:12.831Z,37.80
2022-11-19T05:58:48.184Z,37.40
2022-11-19T05:59:23.605Z,36.60
2022-11-19T05:59:58.962Z,42.40
2022-11-19T06:00:34.160Z,43.50
2022-11-19T06:01:09.688Z,40.00
2022-11-19T06:01:45.044Z,38.60
2022-11-19T06:02:20.361Z,39.00
2022-11-19T06:02:55.726Z,38.40
2022-11-19T06:03:30.923Z,36.90
2022-11-19T06:04:06.475Z,38.90
2022-11-19T06:04:42.202Z,36.90
2022-11-19T06:05:17.419Z,35.80
2022-11-19T06:05:53.340Z,38.50
2022-11-19T06:06:28.466Z,40.50
2022-11-19T06:07:03.761Z,35.00
2022-11-19T06:07:38.835Z,38.30
2022-11-19T06:08:14.267Z,33.40
2022-11-19T06:08:49.594Z,40.50
2022-11-19T06:09:25.127Z,35.10
2022-11-19T06:10:00.378Z,31.20
2022-11-19T06:10:35.624Z,36.40
2022-11-19T06:11:11.318Z,36.30
2022-11-19T06:11:46.729Z,37.30
2022-11-19T06:12:22.153Z,36.60
2022-11-19T06:12:57.391Z,29.90
2022-11-19T06:13:32.939Z,31.50
2022-11-19T06:14:08.261Z,32.40
2022-11-19T06:14:43.370Z,31.10
2022-11-19T06:15:18.700Z,29.10
2022-11-19T06:15:54.127Z,39.80
2022-11-19T06:16:29.487Z,30.00
2022-11-19T06:17:04.605Z,32.10
2022-11-19T06:17:39.916Z,40.40
2022-11-19T06:18:15.196Z,36.40
2022-11-19T06:18:50.754Z,31.30
2022-11-19T06:19:25.973Z,30.50
2022-11-19T06:20:01.306Z,30.60
2022-11-19T06:20:36.743Z,34.50
2022-11-19T06:21:12.395Z,35.80
2022-11-19T06:21:47.192Z,32.60
2022-11-19T06:22:22.808Z,29.00
2022-11-19T06:22:58.520Z,30.80
2022-11-19T06:23:33.756Z,28.50
2022-11-19T06:24:08.976Z,29.40
2022-11-19T06:24:44.213Z,31.20
2022-11-19T06:25:19.958Z,30.20
2022-11-19T06:25:54.996Z,29.80
2022-11-19T06:26:30.556Z,34.30
2022-11-19T06:27:05.805Z,31.00
2022-11-19T06:27:40.942Z,31.50
2022-11-19T06:28:16.545Z,29.40
2022-11-19T06:28:52.015Z,26.30
2022-11-19T06:29:27.344Z,27.70
2022-11-19T06:30:02.754Z,29.60
2022-11-19T06:30:38.175Z,28.70
2022-11-19T06:31:13.447Z,25.70
2022-11-19T06:31:48.804Z,30.50
2022-11-19T06:32:24.047Z,32.80
2022-11-19T06:32:59.202Z,27.80
2022-11-19T06:33:34.229Z,27.10
2022-11-19T06:34:09.350Z,34.40
2022-11-19T06:34:44.600Z,30.70
2022-11-19T06:35:19.857Z,27.30
2022-11-19T06:35:55.148Z,24.30
2022-11-19T06:36:35.955Z,26.30
2022-11-19T06:37:05.293Z,29.70
2022-11-19T06:37:40.850Z,27.70
2022-11-19T06:38:16.165Z,32.50
2022-11-19T06:38:51.497Z,29.70
2022-11-19T06:39:26.787Z,29.20
2022-11-19T06:40:02.020Z,30.30
2022-11-19T06:40:37.139Z,28.40
2022-11-19T06:41:12.372Z,27.30
2022-11-19T06:41:47.606Z,30.10
2022-11-19T06:42:22.673Z,31.10
2022-11-19T06:42:58.304Z,27.10
2022-11-19T06:43:33.677Z,22.60
2022-11-19T06:44:09.139Z,23.70
2022-11-19T06:44:44.490Z,27.20
2022-11-19T06:45:19.922Z,29.00
2022-11-19T06:45:55.038Z,25.60
2022-11-19T06:46:30.194Z,25.10
2022-11-19T06:47:05.678Z,24.60
2022-11-19T06:47:41.201Z,23.20
2022-11-19T06:48:16.586Z,23.60
2022-11-19T06:48:51.875Z,25.80
2022-11-19T06:49:27.304Z,25.80
2022-11-19T06:50:02.446Z,26.70
2022-11-19T06:50:37.894Z,30.10
2022-11-19T06:51:13.700Z,30.70
2022-11-19T06:51:48.826Z,24.50
2022-11-19T06:52:24.114Z,23.60
2022-11-19T06:52:59.641Z,25.20
2022-11-19T06:53:35.261Z,24.10
2022-11-19T06:54:10.695Z,25.30
2022-11-19T06:54:45.898Z,25.60
2022-11-19T06:55:20.924Z,22.50
2022-11-19T06:55:56.230Z,26.80
2022-11-19T06:56:31.584Z,26.20
2022-11-19T06:57:07.072Z,23.10
2022-11-19T06:57:42.212Z,24.70
2022-11-19T06:58:17.339Z,26.90
2022-11-19T06:58:52.671Z,23.60
2022-11-19T06:59:27.971Z,22.40
2022-11-19T07:00:03.274Z,24.20
2022-11-19T07:00:38.686Z,23.80
2022-11-19T07:01:14.933Z,20.80
2022-11-19T07:01:50.360Z,24.70
2022-11-19T07:02:25.800Z,25.20
2022-11-19T07:03:01.009Z,25.60
2022-11-19T07:03:36.359Z,23.30
2022-11-19T07:04:11.472Z,23.60
2022-11-19T07:04:46.719Z,22.80
2022-11-19T07:05:21.962Z,22.20
2022-11-19T07:05:57.277Z,21.50
2022-11-19T07:06:32.773Z,22.60
2022-11-19T07:07:07.899Z,21.40
2022-11-19T07:07:43.175Z,22.10
2022-11-19T07:08:19.277Z,22.80
2022-11-19T07:08:54.316Z,23.70
2022-11-19T07:09:29.687Z,23.80
2022-11-19T07:10:04.999Z,22.50
2022-11-19T07:10:40.470Z,24.50
2022-11-19T07:11:15.852Z,23.60
2022-11-19T07:11:51.462Z,39.00
2022-11-19T07:12:26.719Z,18.70
2022-11-19T07:13:02.089Z,18.20
2022-11-19T07:13:37.332Z,15.60
2022-11-19T07:14:12.888Z,16.40
2022-11-19T07:14:48.101Z,17.70
2022-11-19T07:15:23.359Z,19.00
2022-11-19T07:15:58.592Z,17.20
2022-11-19T07:16:34.209Z,19.30
2022-11-19T07:17:09.306Z,19.60
2022-11-19T07:17:44.639Z,20.30
2022-11-19T07:18:20.474Z,19.30
2022-11-19T07:18:55.821Z,20.40
2022-11-19T07:19:31.190Z,22.80
2022-11-19T07:20:06.438Z,22.90
2022-11-19T07:20:41.824Z,20.50
2022-11-19T07:21:17.434Z,19.80
2022-11-19T07:21:52.665Z,21.60
2022-11-19T07:22:28.086Z,22.60
2022-11-19T07:23:03.417Z,16.90
2022-11-19T07:23:38.990Z,16.20
2022-11-19T07:24:14.641Z,19.00
2022-11-19T07:24:49.913Z,21.10
2022-11-19T07:25:25.291Z,21.00
2022-11-19T07:26:00.643Z,21.10
2022-11-19T07:26:35.819Z,22.30
2022-11-19T07:27:11.226Z,20.00
2022-11-19T07:27:47.143Z,19.40
2022-11-19T07:28:22.504Z,19.20
2022-11-19T07:29:03.110Z,15.60
2022-11-19T07:29:33.359Z,16.50
2022-11-19T07:30:08.695Z,20.70
2022-11-19T07:30:44.052Z,18.70
2022-11-19T07:31:19.430Z,15.60
2022-11-19T07:31:54.988Z,17.80
2022-11-19T07:32:30.252Z,20.90
2022-11-19T07:33:05.845Z,20.90
2022-11-19T07:33:41.035Z,18.60
2022-11-19T07:34:16.689Z,20.30
2022-11-19T07:34:52.080Z,19.60